sensor_id;sensor_type;location;lat;lon;timestamp;pressure;altitude;pressure_sealevel;temperature;humidity
70445;BME280;57902;49.638;11.070;2023-04-24T00:00:44;97203.81;;;10.55;100.00
70445;BME280;57902;49.638;11.070;2023-04-24T00:03:11;97202.84;;;10.58;100.00
70445;BME280;57902;49.638;11.070;2023-04-24T00:05:39;97207.84;;;10.61;100.00
70445;BME280;57902;49.638;11.070;2023-04-24T00:08:06;97211.63;;;10.54;100.00
70445;BME280;57902;49.638;11.070;2023-04-24T00:10:33;97219.28;;;10.55;100.00
70445;BME280;57902;49.638;11.070;2023-04-24T00:12:59;97219.41;;;10.52;100.00
70445;BME280;57902;49.638;11.070;2023-04-24T00:15:26;97218.38;;;10.56;100.00
70445;BME280;57902;49.638;11.070;2023-04-24T00:17:52;97215.38;;;10.46;100.00
70445;BME280;57902;49.638;11.070;2023-04-24T00:20:19;97207.56;;;10.48;100.00
70445;BME280;57902;49.638;11.070;2023-04-24T00:22:46;97215.22;;;10.49;100.00
70445;BME280;57902;49.638;11.070;2023-04-24T00:25:12;97211.09;;;10.47;100.00
70445;BME280;57902;49.638;11.070;2023-04-24T00:27:39;97213.50;;;10.50;100.00
70445;BME280;57902;49.638;11.070;2023-04-24T00:30:06;97218.03;;;10.45;100.00
70445;BME280;57902;49.638;11.070;2023-04-24T00:32:35;97226.66;;;10.44;100.00
70445;BME280;57902;49.638;11.070;2023-04-24T00:35:02;97225.28;;;10.37;100.00
70445;BME280;57902;49.638;11.070;2023-04-24T00:37:28;97220.69;;;10.43;100.00
70445;BME280;57902;49.638;11.070;2023-04-24T00:39:55;97211.34;;;10.41;100.00
70445;BME280;57902;49.638;11.070;2023-04-24T00:42:22;97219.00;;;10.42;100.00
70445;BME280;57902;49.638;11.070;2023-04-24T00:44:49;97220.25;;;10.33;100.00
70445;BME280;57902;49.638;11.070;2023-04-24T00:47:16;97220.38;;;10.30;100.00
70445;BME280;57902;49.638;11.070;2023-04-24T00:49:43;97225.28;;;10.37;100.00
70445;BME280;57902;49.638;11.070;2023-04-24T00:52:10;97224.63;;;10.31;100.00
70445;BME280;57902;49.638;11.070;2023-04-24T00:54:36;97214.31;;;10.31;100.00
70445;BME280;57902;49.638;11.070;2023-04-24T00:57:03;97212.41;;;10.37;100.00
70445;BME280;57902;49.638;11.070;2023-04-24T00:59:30;97211.63;;;10.35;100.00
70445;BME280;57902;49.638;11.070;2023-04-24T01:01:58;97211.00;;;10.29;100.00
70445;BME280;57902;49.638;11.070;2023-04-24T01:04:24;97209.44;;;10.25;100.00
70445;BME280;57902;49.638;11.070;2023-04-24T01:06:52;97203.53;;;10.23;100.00
70445;BME280;57902;49.638;11.070;2023-04-24T01:09:21;97195.47;;;10.12;100.00
70445;BME280;57902;49.638;11.070;2023-04-24T01:11:49;97202.16;;;10.16;100.00
70445;BME280;57902;49.638;11.070;2023-04-24T01:14:16;97210.13;;;10.10;100.00
70445;BME280;57902;49.638;11.070;2023-04-24T01:16:42;97198.19;;;10.09;100.00
70445;BME280;57902;49.638;11.070;2023-04-24T01:19:10;97208.47;;;10.09;100.00
70445;BME280;57902;49.638;11.070;2023-04-24T01:21:37;97210.28;;;10.07;100.00
70445;BME280;57902;49.638;11.070;2023-04-24T01:24:05;97207.41;;;10.13;100.00
70445;BME280;57902;49.638;11.070;2023-04-24T01:26:32;97209.22;;;10.11;100.00
70445;BME280;57902;49.638;11.070;2023-04-24T01:28:58;97205.06;;;10.08;100.00
70445;BME280;57902;49.638;11.070;2023-04-24T01:31:25;97210.91;;;10.12;100.00
70445;BME280;57902;49.638;11.070;2023-04-24T01:33:53;97211.06;;;10.09;100.00
70445;BME280;57902;49.638;11.070;2023-04-24T01:36:23;97217.09;;;10.08;100.00
70445;BME280;57902;49.638;11.070;2023-04-24T01:38:52;97217.25;;;10.05;100.00
70445;BME280;57902;49.638;11.070;2023-04-24T01:41:19;97211.06;;;10.09;100.00
70445;BME280;57902;49.638;11.070;2023-04-24T01:43:46;97206.38;;;10.17;100.00
70445;BME280;57902;49.638;11.070;2023-04-24T01:46:14;97204.81;;;10.14;100.00
70445;BME280;57902;49.638;11.070;2023-04-24T01:48:41;97214.09;;;10.17;100.00
70445;BME280;57902;49.638;11.070;2023-04-24T01:51:08;97205.63;;;10.15;100.00
70445;BME280;57902;49.638;11.070;2023-04-24T01:53:34;97212.47;;;10.16;100.00
70445;BME280;57902;49.638;11.070;2023-04-24T01:56:01;97208.06;;;10.18;100.00
70445;BME280;57902;49.638;11.070;2023-04-24T01:58:27;97204.38;;;10.24;100.00
70445;BME280;57902;49.638;11.070;2023-04-24T02:00:56;97204.38;;;10.24;100.00
70445;BME280;57902;49.638;11.070;2023-04-24T02:03:25;97204.97;;;10.29;100.00
70445;BME280;57902;49.638;11.070;2023-04-24T02:05:52;97196.50;;;10.27;100.00
70445;BME280;57902;49.638;11.070;2023-04-24T02:08:19;97194.22;;;10.21;100.00
70445;BME280;57902;49.638;11.070;2023-04-24T02:10:45;97188.91;;;10.24;100.00
70445;BME280;57902;49.638;11.070;2023-04-24T02:13:12;97185.78;;;10.17;100.00
70445;BME280;57902;49.638;11.070;2023-04-24T02:15:38;97174.50;;;10.20;100.00
70445;BME280;57902;49.638;11.070;2023-04-24T02:18:05;97188.22;;;10.20;100.00
70445;BME280;57902;49.638;11.070;2023-04-24T02:20:33;97185.78;;;10.17;100.00
70445;BME280;57902;49.638;11.070;2023-04-24T02:23:03;97176.41;;;10.16;100.00
70445;BME280;57902;49.638;11.070;2023-04-24T02:25:29;97178.13;;;10.15;100.00
70445;BME280;57902;49.638;11.070;2023-04-24T02:27:56;97179.88;;;10.15;100.00
70445;BME280;57902;49.638;11.070;2023-04-24T02:30:25;97173.91;;;10.14;100.00
70445;BME280;57902;49.638;11.070;2023-04-24T02:32:51;97176.66;;;10.10;100.00
70445;BME280;57902;49.638;11.070;2023-04-24T02:35:18;97167.88;;;10.14;100.00
70445;BME280;57902;49.638;11.070;2023-04-24T02:37:44;97166.22;;;10.13;100.00
70445;BME280;57902;49.638;11.070;2023-04-24T02:40:11;97164.34;;;10.16;100.00
70445;BME280;57902;49.638;11.070;2023-04-24T02:42:37;97165.09;;;10.19;100.00
70445;BME280;57902;49.638;11.070;2023-04-24T02:45:04;97170.97;;;10.22;100.00
70445;BME280;57902;49.638;11.070;2023-04-24T02:47:31;97166.63;;;10.23;100.00
70445;BME280;57902;49.638;11.070;2023-04-24T02:49:57;97172.59;;;10.23;100.00
70445;BME280;57902;49.638;11.070;2023-04-24T02:52:24;97167.47;;;10.23;100.00
70445;BME280;57902;49.638;11.070;2023-04-24T02:54:50;97171.03;;;10.21;100.00
70445;BME280;57902;49.638;11.070;2023-04-24T02:57:17;97168.59;;;10.18;100.00
70445;BME280;57902;49.638;11.070;2023-04-24T02:59:44;97162.44;;;10.20;100.00
70445;BME280;57902;49.638;11.070;2023-04-24T03:02:11;97162.53;;;10.19;100.00
70445;BME280;57902;49.638;11.070;2023-04-24T03:04:37;97165.03;;;10.20;100.00
70445;BME280;57902;49.638;11.070;2023-04-24T03:07:06;97158.44;;;10.14;100.00
70445;BME280;57902;49.638;11.070;2023-04-24T03:09:35;97151.84;;;10.09;100.00
70445;BME280;57902;49.638;11.070;2023-04-24T03:12:02;97159.28;;;10.15;100.00
70445;BME280;57902;49.638;11.070;2023-04-24T03:14:28;97157.44;;;10.17;100.00
70445;BME280;57902;49.638;11.070;2023-04-24T03:16:57;97151.31;;;10.20;100.00
70445;BME280;57902;49.638;11.070;2023-04-24T03:19:26;97152.28;;;10.17;100.00
70445;BME280;57902;49.638;11.070;2023-04-24T03:21:52;97156.06;;;10.10;100.00
70445;BME280;57902;49.638;11.070;2023-04-24T03:24:19;97159.00;;;10.02;100.00
70445;BME280;57902;49.638;11.070;2023-04-24T03:26:46;97151.19;;;10.04;100.00
70445;BME280;57902;49.638;11.070;2023-04-24T03:29:13;97149.50;;;10.03;100.00
70445;BME280;57902;49.638;11.070;2023-04-24T03:31:39;97152.16;;;10.01;100.00
70445;BME280;57902;49.638;11.070;2023-04-24T03:34:06;97159.06;;;10.01;100.00
70445;BME280;57902;49.638;11.070;2023-04-24T03:36:32;97153.97;;;9.99;100.00
70445;BME280;57902;49.638;11.070;2023-04-24T03:38:59;97155.50;;;10.03;100.00
70445;BME280;57902;49.638;11.070;2023-04-24T03:41:25;97153.09;;;10.00;100.00
70445;BME280;57902;49.638;11.070;2023-04-24T03:43:52;97158.38;;;9.97;100.00
70445;BME280;57902;49.638;11.070;2023-04-24T03:46:18;97161.06;;;9.94;100.00
70445;BME280;57902;49.638;11.070;2023-04-24T03:48:45;97156.97;;;9.90;100.00
70445;BME280;57902;49.638;11.070;2023-04-24T03:51:11;97158.84;;;9.86;100.00
70445;BME280;57902;49.638;11.070;2023-04-24T03:53:38;97161.34;;;9.88;100.00
70445;BME280;57902;49.638;11.070;2023-04-24T03:56:04;97157.88;;;9.89;100.00
70445;BME280;57902;49.638;11.070;2023-04-24T03:58:31;97162.19;;;9.88;100.00
70445;BME280;57902;49.638;11.070;2023-04-24T04:00:57;97162.81;;;9.93;100.00
70445;BME280;57902;49.638;11.070;2023-04-24T04:03:24;97162.88;;;9.92;100.00
70445;BME280;57902;49.638;11.070;2023-04-24T04:05:52;97162.75;;;9.95;100.00
70445;BME280;57902;49.638;11.070;2023-04-24T04:08:20;97165.53;;;9.90;100.00
70445;BME280;57902;49.638;11.070;2023-04-24T04:10:47;97167.41;;;9.87;100.00
70445;BME280;57902;49.638;11.070;2023-04-24T04:13:13;97172.50;;;9.88;100.00
70445;BME280;57902;49.638;11.070;2023-04-24T04:15:40;97164.84;;;9.87;100.00
70445;BME280;57902;49.638;11.070;2023-04-24T04:18:07;97169.13;;;9.86;100.00
70445;BME280;57902;49.638;11.070;2023-04-24T04:20:33;97175.81;;;9.90;100.00
70445;BME280;57902;49.638;11.070;2023-04-24T04:22:59;97167.34;;;9.88;100.00
70445;BME280;57902;49.638;11.070;2023-04-24T04:25:26;97162.75;;;9.95;100.00
70445;BME280;57902;49.638;11.070;2023-04-24T04:27:52;97168.09;;;9.90;100.00
70445;BME280;57902;49.638;11.070;2023-04-24T04:30:20;97168.44;;;9.83;100.00
70445;BME280;57902;49.638;11.070;2023-04-24T04:32:47;97159.13;;;9.80;100.00
70445;BME280;57902;49.638;11.070;2023-04-24T04:35:13;97165.16;;;9.79;100.00
70445;BME280;57902;49.638;11.070;2023-04-24T04:37:40;97171.22;;;9.78;100.00
70445;BME280;57902;49.638;11.070;2023-04-24T04:40:07;97166.78;;;9.81;100.00
70445;BME280;57902;49.638;11.070;2023-04-24T04:42:37;97169.13;;;9.86;100.00
70445;BME280;57902;49.638;11.070;2023-04-24T04:45:07;97174.28;;;9.86;100.00
70445;BME280;57902;49.638;11.070;2023-04-24T04:47:42;97171.78;;;9.85;100.00
70445;BME280;57902;49.638;11.070;2023-04-24T04:50:09;97167.41;;;9.87;100.00
70445;BME280;57902;49.638;11.070;2023-04-24T04:52:36;97170.16;;;9.82;100.00
70445;BME280;57902;49.638;11.070;2023-04-24T04:55:03;97162.44;;;9.82;100.00
70445;BME280;57902;49.638;11.070;2023-04-24T04:57:32;97177.00;;;9.83;100.00
70445;BME280;57902;49.638;11.070;2023-04-24T04:59:59;97175.47;;;9.79;100.00
70445;BME280;57902;49.638;11.070;2023-04-24T05:02:26;97171.22;;;9.78;100.00
70445;BME280;57902;49.638;11.070;2023-04-24T05:04:53;97176.25;;;9.81;100.00
70445;BME280;57902;49.638;11.070;2023-04-24T05:07:19;97178.31;;;9.92;100.00
70445;BME280;57902;49.638;11.070;2023-04-24T05:09:46;97181.66;;;9.94;100.00
70445;BME280;57902;49.638;11.070;2023-04-24T05:12:12;97178.31;;;9.92;100.00
70445;BME280;57902;49.638;11.070;2023-04-24T05:14:39;97195.44;;;9.93;100.00
70445;BME280;57902;49.638;11.070;2023-04-24T05:17:05;97197.69;;;10.01;100.00
70445;BME280;57902;49.638;11.070;2023-04-24T05:19:32;97201.16;;;9.99;100.00
70445;BME280;57902;49.638;11.070;2023-04-24T05:22:02;97199.34;;;10.02;100.00
70445;BME280;57902;49.638;11.070;2023-04-24T05:24:30;97200.91;;;10.06;100.00
70445;BME280;57902;49.638;11.070;2023-04-24T05:26:56;97199.81;;;10.10;100.00
70445;BME280;57902;49.638;11.070;2023-04-24T05:29:25;97203.88;;;10.15;100.00
70445;BME280;57902;49.638;11.070;2023-04-24T05:31:52;97214.09;;;10.17;100.00
70445;BME280;57902;49.638;11.070;2023-04-24T05:34:19;97219.53;;;10.11;100.00
70445;BME280;57902;49.638;11.070;2023-04-24T05:36:45;97219.41;;;10.14;100.00
70445;BME280;57902;49.638;11.070;2023-04-24T05:39:12;97226.22;;;10.15;100.00
70445;BME280;57902;49.638;11.070;2023-04-24T05:41:38;97215.34;;;10.27;100.00
70445;BME280;57902;49.638;11.070;2023-04-24T05:44:05;97220.94;;;10.18;100.00
70445;BME280;57902;49.638;11.070;2023-04-24T05:46:31;97224.56;;;10.33;100.00
70445;BME280;57902;49.638;11.070;2023-04-24T05:48:58;97220.44;;;10.29;100.00
70445;BME280;57902;49.638;11.070;2023-04-24T05:51:25;97220.97;;;10.37;100.00
70445;BME280;57902;49.638;11.070;2023-04-24T05:53:52;97224.56;;;10.33;100.00
70445;BME280;57902;49.638;11.070;2023-04-24T05:56:18;97233.91;;;10.36;100.00
70445;BME280;57902;49.638;11.070;2023-04-24T05:58:46;97229.22;;;10.25;100.00
70445;BME280;57902;49.638;11.070;2023-04-24T06:01:13;97231.91;;;10.22;100.00
70445;BME280;57902;49.638;11.070;2023-04-24T06:03:41;97237.50;;;10.31;100.00
70445;BME280;57902;49.638;11.070;2023-04-24T06:06:08;97233.25;;;10.30;100.00
70445;BME280;57902;49.638;11.070;2023-04-24T06:08:35;97229.16;;;10.26;100.00
70445;BME280;57902;49.638;11.070;2023-04-24T06:11:01;97225.69;;;10.46;100.00
70445;BME280;57902;49.638;11.070;2023-04-24T06:13:30;97230.97;;;10.43;100.00
70445;BME280;57902;49.638;11.070;2023-04-24T06:15:56;97223.38;;;10.59;100.00
70445;BME280;57902;49.638;11.070;2023-04-24T06:18:23;97225.81;;;10.62;100.00
70445;BME280;57902;49.638;11.070;2023-04-24T06:20:51;97236.69;;;10.50;100.00
70445;BME280;57902;49.638;11.070;2023-04-24T06:23:18;97242.69;;;10.50;100.00
70445;BME280;57902;49.638;11.070;2023-04-24T06:25:44;97247.84;;;10.50;100.00
70445;BME280;57902;49.638;11.070;2023-04-24T06:28:11;97258.00;;;10.54;100.00
70445;BME280;57902;49.638;11.070;2023-04-24T06:30:37;97244.44;;;10.50;100.00
70445;BME280;57902;49.638;11.070;2023-04-24T06:33:05;97249.84;;;10.44;100.00
70445;BME280;57902;49.638;11.070;2023-04-24T06:35:45;97253.28;;;10.44;100.00
70445;BME280;57902;49.638;11.070;2023-04-24T06:38:12;97254.66;;;10.52;100.00
70445;BME280;57902;49.638;11.070;2023-04-24T06:40:38;97256.81;;;10.61;100.00
70445;BME280;57902;49.638;11.070;2023-04-24T06:43:05;97249.06;;;10.61;100.00
70445;BME280;57902;49.638;11.070;2023-04-24T06:45:32;97247.97;;;10.66;100.00
70445;BME280;57902;49.638;11.070;2023-04-24T06:47:59;97258.81;;;10.73;100.00
70445;BME280;57902;49.638;11.070;2023-04-24T06:50:25;97258.47;;;10.81;100.00
70445;BME280;57902;49.638;11.070;2023-04-24T06:52:52;97262.59;;;10.85;100.00
70445;BME280;57902;49.638;11.070;2023-04-24T06:55:18;97261.44;;;10.91;100.00
70445;BME280;57902;49.638;11.070;2023-04-24T06:57:45;97265.63;;;10.93;100.00
70445;BME280;57902;49.638;11.070;2023-04-24T07:00:12;97271.59;;;10.94;100.00
70445;BME280;57902;49.638;11.070;2023-04-24T07:02:40;97279.81;;;11.02;100.00
70445;BME280;57902;49.638;11.070;2023-04-24T07:05:07;97272.63;;;11.09;100.00
70445;BME280;57902;49.638;11.070;2023-04-24T07:07:34;97272.19;;;11.18;100.00
70445;BME280;57902;49.638;11.070;2023-04-24T07:10:05;97269.06;;;11.29;100.00
70445;BME280;57902;49.638;11.070;2023-04-24T07:12:31;97279.78;;;11.38;97.92
70445;BME280;57902;49.638;11.070;2023-04-24T07:14:59;97284.03;;;11.40;92.14
70445;BME280;57902;49.638;11.070;2023-04-24T07:17:26;97286.16;;;11.31;89.72
70445;BME280;57902;49.638;11.070;2023-04-24T07:19:53;97285.78;;;11.56;88.43
70445;BME280;57902;49.638;11.070;2023-04-24T07:22:19;97288.50;;;11.71;86.26
70445;BME280;57902;49.638;11.070;2023-04-24T07:24:46;97291.84;;;11.73;82.83
70445;BME280;57902;49.638;11.070;2023-04-24T07:27:12;97296.03;;;11.76;82.52
70445;BME280;57902;49.638;11.070;2023-04-24T07:29:41;97306.22;;;11.96;81.64
70445;BME280;57902;49.638;11.070;2023-04-24T07:32:08;97308.53;;;12.18;79.51
70445;BME280;57902;49.638;11.070;2023-04-24T07:34:35;97304.47;;;12.30;77.92
70445;BME280;57902;49.638;11.070;2023-04-24T07:37:04;97308.09;;;12.43;76.12
70445;BME280;57902;49.638;11.070;2023-04-24T07:39:30;97312.19;;;12.80;76.48
70445;BME280;57902;49.638;11.070;2023-04-24T07:41:57;97306.25;;;13.09;75.40
70445;BME280;57902;49.638;11.070;2023-04-24T07:44:25;97301.41;;;13.19;70.69
70445;BME280;57902;49.638;11.070;2023-04-24T07:46:52;97310.69;;;13.23;72.06
70445;BME280;57902;49.638;11.070;2023-04-24T07:49:20;97311.59;;;13.22;72.06
70445;BME280;57902;49.638;11.070;2023-04-24T07:51:47;97310.19;;;13.63;71.29
70445;BME280;57902;49.638;11.070;2023-04-24T07:54:13;97315.06;;;13.83;68.25
70445;BME280;57902;49.638;11.070;2023-04-24T07:56:41;97318.41;;;14.00;65.57
70445;BME280;57902;49.638;11.070;2023-04-24T07:59:10;97315.09;;;13.98;66.55
70445;BME280;57902;49.638;11.070;2023-04-24T08:01:36;97320.19;;;14.28;66.98
70445;BME280;57902;49.638;11.070;2023-04-24T08:04:03;97324.66;;;15.11;62.85
70445;BME280;57902;49.638;11.070;2023-04-24T08:06:30;97315.94;;;15.92;58.20
70445;BME280;57902;49.638;11.070;2023-04-24T08:08:58;97319.13;;;16.60;56.62
70445;BME280;57902;49.638;11.070;2023-04-24T08:11:26;97318.91;;;16.89;55.58
70445;BME280;57902;49.638;11.070;2023-04-24T08:13:52;97326.47;;;17.29;54.30
70445;BME280;57902;49.638;11.070;2023-04-24T08:16:20;97322.38;;;17.14;51.46
70445;BME280;57902;49.638;11.070;2023-04-24T08:18:47;97327.25;;;16.94;50.79
70445;BME280;57902;49.638;11.070;2023-04-24T08:21:13;97326.28;;;16.95;49.54
70445;BME280;57902;49.638;11.070;2023-04-24T08:23:43;97329.25;;;16.52;49.45
70445;BME280;57902;49.638;11.070;2023-04-24T08:26:10;97342.47;;;16.23;50.85
70445;BME280;57902;49.638;11.070;2023-04-24T08:28:37;97340.41;;;16.29;51.37
70445;BME280;57902;49.638;11.070;2023-04-24T08:31:04;97340.72;;;15.71;51.04
70445;BME280;57902;49.638;11.070;2023-04-24T08:33:31;97351.16;;;15.16;52.86
70445;BME280;57902;49.638;11.070;2023-04-24T08:36:05;97353.72;;;14.89;55.84
70445;BME280;57902;49.638;11.070;2023-04-24T08:38:33;97357.16;;;14.75;57.30
70445;BME280;57902;49.638;11.070;2023-04-24T08:41:01;97356.31;;;14.46;56.29
70445;BME280;57902;49.638;11.070;2023-04-24T08:43:28;97351.44;;;14.11;56.91
70445;BME280;57902;49.638;11.070;2023-04-24T08:45:55;97363.91;;;13.90;57.37
70445;BME280;57902;49.638;11.070;2023-04-24T08:48:23;97359.94;;;13.54;58.75
70445;BME280;57902;49.638;11.070;2023-04-24T08:50:59;97364.84;;;13.26;60.86
70445;BME280;57902;49.638;11.070;2023-04-24T08:53:27;97364.19;;;13.07;62.50
70445;BME280;57902;49.638;11.070;2023-04-24T08:55:55;97373.59;;;12.92;63.42
70445;BME280;57902;49.638;11.070;2023-04-24T08:58:25;97366.69;;;12.92;64.76
70445;BME280;57902;49.638;11.070;2023-04-24T09:00:54;97379.88;;;12.88;66.28
70445;BME280;57902;49.638;11.070;2023-04-24T09:03:21;97370.63;;;13.16;65.39
70445;BME280;57902;49.638;11.070;2023-04-24T09:05:49;97370.72;;;13.14;64.28
70445;BME280;57902;49.638;11.070;2023-04-24T09:08:18;97370.31;;;13.38;62.83
70445;BME280;57902;49.638;11.070;2023-04-24T09:10:45;97364.16;;;13.55;60.00
70445;BME280;57902;49.638;11.070;2023-04-24T09:13:14;97360.59;;;13.41;61.35
70445;BME280;57902;49.638;11.070;2023-04-24T09:15:41;97370.47;;;13.35;61.30
70445;BME280;57902;49.638;11.070;2023-04-24T09:18:07;97363.53;;;13.35;62.02
70445;BME280;57902;49.638;11.070;2023-04-24T09:20:34;97360.81;;;13.69;62.54
70445;BME280;57902;49.638;11.070;2023-04-24T09:23:05;97355.19;;;14.07;61.91
70445;BME280;57902;49.638;11.070;2023-04-24T09:25:32;97351.63;;;14.08;59.94
70445;BME280;57902;49.638;11.070;2023-04-24T09:28:03;97344.63;;;14.53;57.20
70445;BME280;57902;49.638;11.070;2023-04-24T09:30:30;97344.19;;;14.32;57.23
70445;BME280;57902;49.638;11.070;2023-04-24T09:33:13;97346.88;;;14.30;58.30
70445;BME280;57902;49.638;11.070;2023-04-24T09:35:49;97351.13;;;14.17;58.60
70445;BME280;57902;49.638;11.070;2023-04-24T09:38:16;97353.19;;;13.96;56.71
70445;BME280;57902;49.638;11.070;2023-04-24T09:40:42;97361.41;;;13.58;58.28
70445;BME280;57902;49.638;11.070;2023-04-24T09:43:10;97368.97;;;13.46;59.04
70445;BME280;57902;49.638;11.070;2023-04-24T09:45:39;97363.00;;;13.12;60.44
70445;BME280;57902;49.638;11.070;2023-04-24T09:48:08;97363.78;;;13.15;60.51
70445;BME280;57902;49.638;11.070;2023-04-24T09:50:36;97354.31;;;13.29;61.74
70445;BME280;57902;49.638;11.070;2023-04-24T09:53:04;97355.22;;;13.60;60.81
70445;BME280;57902;49.638;11.070;2023-04-24T09:55:32;97350.81;;;14.07;59.42
70445;BME280;57902;49.638;11.070;2023-04-24T09:58:00;97355.66;;;14.28;60.65
70445;BME280;57902;49.638;11.070;2023-04-24T10:00:31;97362.88;;;14.51;59.49
70445;BME280;57902;49.638;11.070;2023-04-24T10:03:03;97339.75;;;14.63;52.87
70445;BME280;57902;49.638;11.070;2023-04-24T10:05:32;97344.88;;;14.92;54.11
70445;BME280;57902;49.638;11.070;2023-04-24T10:08:07;97336.56;;;15.01;50.40
70445;BME280;57902;49.638;11.070;2023-04-24T10:10:41;97339.44;;;14.96;51.54
70445;BME280;57902;49.638;11.070;2023-04-24T10:13:10;97342.13;;;14.95;51.17
70445;BME280;57902;49.638;11.070;2023-04-24T10:15:38;97343.78;;;14.81;51.39
70445;BME280;57902;49.638;11.070;2023-04-24T10:18:05;97357.50;;;14.98;48.52
70445;BME280;57902;49.638;11.070;2023-04-24T10:20:35;97347.97;;;14.26;51.57
70445;BME280;57902;49.638;11.070;2023-04-24T10:23:14;97354.81;;;14.27;51.46
70445;BME280;57902;49.638;11.070;2023-04-24T10:25:41;97387.00;;;14.09;52.58
70445;BME280;57902;49.638;11.070;2023-04-24T10:28:09;97402.53;;;13.64;58.15
70445;BME280;57902;49.638;11.070;2023-04-24T10:30:36;97423.66;;;13.24;60.91
70445;BME280;57902;49.638;11.070;2023-04-24T10:33:05;97422.50;;;12.81;62.65
70445;BME280;57902;49.638;11.070;2023-04-24T10:35:39;97419.06;;;12.64;63.60
70445;BME280;57902;49.638;11.070;2023-04-24T10:38:09;97416.84;;;12.56;64.25
70445;BME280;57902;49.638;11.070;2023-04-24T10:40:37;97422.78;;;12.58;62.73
70445;BME280;57902;49.638;11.070;2023-04-24T10:43:07;97420.13;;;12.60;62.42
70445;BME280;57902;49.638;11.070;2023-04-24T10:45:37;97420.53;;;12.68;60.50
70445;BME280;57902;49.638;11.070;2023-04-24T10:48:06;97428.78;;;12.92;60.20
70445;BME280;57902;49.638;11.070;2023-04-24T10:50:50;97425.88;;;12.99;58.61
70445;BME280;57902;49.638;11.070;2023-04-24T10:53:22;97442.03;;;13.02;57.40
70445;BME280;57902;49.638;11.070;2023-04-24T10:56:04;97445.59;;;13.17;55.39
70445;BME280;57902;49.638;11.070;2023-04-24T10:58:41;97440.22;;;13.04;55.50
70445;BME280;57902;49.638;11.070;2023-04-24T11:01:30;97437.41;;;13.09;55.62
70445;BME280;57902;49.638;11.070;2023-04-24T11:04:01;97434.00;;;13.40;55.00
70445;BME280;57902;49.638;11.070;2023-04-24T11:06:34;97434.16;;;13.37;54.92
70445;BME280;57902;49.638;11.070;2023-04-24T11:11:29;97430.75;;;13.37;54.91
70445;BME280;57902;49.638;11.070;2023-04-24T11:21:39;97443.59;;;13.70;53.69
70445;BME280;57902;49.638;11.070;2023-04-24T11:27:12;97431.13;;;13.77;55.76
70445;BME280;57902;49.638;11.070;2023-04-24T11:34:54;97433.41;;;13.67;54.37
70445;BME280;57902;49.638;11.070;2023-04-24T11:37:23;97434.84;;;13.57;54.85
70445;BME280;57902;49.638;11.070;2023-04-24T11:39:54;97444.69;;;13.34;55.34
70445;BME280;57902;49.638;11.070;2023-04-24T11:42:22;97441.16;;;13.19;55.57
70445;BME280;57902;49.638;11.070;2023-04-24T11:44:51;97432.03;;;12.96;55.10
70445;BME280;57902;49.638;11.070;2023-04-24T11:47:17;97435.53;;;13.11;56.33
70445;BME280;57902;49.638;11.070;2023-04-24T11:49:44;97437.66;;;13.20;55.26
70445;BME280;57902;49.638;11.070;2023-04-24T11:52:15;97445.34;;;13.22;54.21
70445;BME280;57902;49.638;11.070;2023-04-24T11:54:51;97445.72;;;12.98;54.22
70445;BME280;57902;49.638;11.070;2023-04-24T11:57:22;97444.75;;;13.17;52.03
70445;BME280;57902;49.638;11.070;2023-04-24T11:59:50;97453.44;;;13.16;53.36
70445;BME280;57902;49.638;11.070;2023-04-24T12:02:21;97457.88;;;13.29;52.06
70445;BME280;57902;49.638;11.070;2023-04-24T12:04:48;97447.97;;;13.54;50.96
70445;BME280;57902;49.638;11.070;2023-04-24T12:07:15;97450.28;;;13.74;49.98
70445;BME280;57902;49.638;11.070;2023-04-24T12:09:46;97460.84;;;14.02;49.86
70445;BME280;57902;49.638;11.070;2023-04-24T12:12:16;97441.97;;;13.99;50.97
70445;BME280;57902;49.638;11.070;2023-04-24T12:14:49;97440.97;;;14.16;50.71
70445;BME280;57902;49.638;11.070;2023-04-24T12:17:17;97454.28;;;14.10;51.32
70445;BME280;57902;49.638;11.070;2023-04-24T12:19:47;97444.47;;;14.01;51.22
70445;BME280;57902;49.638;11.070;2023-04-24T12:22:14;97458.63;;;14.26;52.06
70445;BME280;57902;49.638;11.070;2023-04-24T12:25:03;97455.66;;;14.32;51.51
70445;BME280;57902;49.638;11.070;2023-04-24T12:27:32;97458.06;;;14.35;52.45
70445;BME280;57902;49.638;11.070;2023-04-24T12:30:00;97460.66;;;14.35;52.25
70445;BME280;57902;49.638;11.070;2023-04-24T12:32:27;97460.00;;;14.01;53.96
70445;BME280;57902;49.638;11.070;2023-04-24T12:34:55;97471.81;;;13.91;53.83
70445;BME280;57902;49.638;11.070;2023-04-24T12:37:26;97465.41;;;13.66;53.80
70445;BME280;57902;49.638;11.070;2023-04-24T12:42:35;97471.28;;;13.38;54.88
70445;BME280;57902;49.638;11.070;2023-04-24T12:45:04;97466.56;;;13.44;53.97
70445;BME280;57902;49.638;11.070;2023-04-24T12:47:32;97476.13;;;13.60;54.09
70445;BME280;57902;49.638;11.070;2023-04-24T12:50:00;97481.13;;;13.63;54.96
70445;BME280;57902;49.638;11.070;2023-04-24T12:52:28;97485.22;;;13.67;55.33
70445;BME280;57902;49.638;11.070;2023-04-24T12:55:00;97482.81;;;13.64;54.11
70445;BME280;57902;49.638;11.070;2023-04-24T12:57:28;97480.94;;;13.34;56.27
70445;BME280;57902;49.638;11.070;2023-04-24T12:59:56;97481.50;;;13.23;57.69
70445;BME280;57902;49.638;11.070;2023-04-24T13:02:23;97493.09;;;13.16;58.05
70445;BME280;57902;49.638;11.070;2023-04-24T13:04:52;97491.38;;;12.99;61.68
70445;BME280;57902;49.638;11.070;2023-04-24T13:07:19;97488.53;;;12.88;61.98
70445;BME280;57902;49.638;11.070;2023-04-24T13:09:47;97497.53;;;12.63;63.70